createdAt,value
2019-02-28T00:00:15.996Z,38.17
2019-02-28T00:02:44.278Z,40.80
2019-02-28T00:05:12.533Z,34.30
2019-02-28T00:07:40.795Z,29.23
2019-02-28T00:10:09.051Z,37.47
2019-02-28T00:12:37.300Z,32.07
2019-02-28T00:15:09.573Z,32.47
2019-02-28T00:17:42.567Z,27.57
2019-02-28T00:20:09.005Z,33.10
2019-02-28T00:22:37.265Z,35.10
2019-02-28T00:25:07.610Z,35.70
2019-02-28T00:27:35.859Z,34.50
2019-02-28T00:30:06.916Z,31.73
2019-02-28T00:32:35.187Z,32.60
2019-02-28T00:35:04.044Z,33.93
2019-02-28T00:37:32.314Z,45.80
2019-02-28T00:40:00.569Z,35.97
2019-02-28T00:42:28.840Z,37.90
2019-02-28T00:44:57.110Z,46.33
2019-02-28T00:47:25.369Z,39.27
2019-02-28T00:49:55.582Z,38.70
2019-02-28T00:52:23.631Z,38.73
2019-02-28T00:54:51.890Z,39.43
2019-02-28T00:57:20.153Z,38.13
2019-02-28T00:59:48.418Z,38.90
2019-02-28T01:02:17.570Z,33.53
2019-02-28T01:04:46.792Z,33.80
2019-02-28T01:07:16.335Z,41.73
2019-02-28T01:09:45.198Z,35.27
2019-02-28T01:12:18.744Z,36.70
2019-02-28T01:14:43.442Z,37.43
2019-02-28T01:17:11.714Z,34.30
2019-02-28T01:19:41.253Z,37.97
2019-02-28T01:22:09.995Z,36.20
2019-02-28T01:24:38.251Z,33.33
2019-02-28T01:27:06.545Z,33.43
2019-02-28T01:29:35.699Z,33.33
2019-02-28T01:32:04.646Z,37.27
2019-02-28T01:34:33.070Z,31.20
2019-02-28T01:37:01.373Z,30.30
2019-02-28T01:39:30.700Z,40.70
2019-02-28T01:41:59.078Z,36.10
2019-02-28T01:44:27.342Z,35.10
2019-02-28T01:46:55.612Z,33.83
2019-02-28T01:49:25.943Z,35.00
2019-02-28T01:51:53.879Z,34.57
2019-02-28T01:54:22.151Z,38.87
2019-02-28T01:56:50.507Z,34.17
2019-02-28T01:59:21.603Z,30.77
2019-02-28T02:01:48.746Z,38.17
2019-02-28T02:04:17.033Z,34.27
2019-02-28T02:06:45.298Z,33.57
2019-02-28T02:09:13.559Z,29.83
2019-02-28T02:11:41.843Z,35.60
2019-02-28T02:14:10.969Z,27.70
2019-02-28T02:16:40.068Z,32.47
2019-02-28T02:19:08.343Z,36.30
2019-02-28T02:21:36.590Z,35.23
2019-02-28T02:24:04.884Z,31.73
2019-02-28T02:26:33.156Z,32.00
2019-02-28T02:29:01.921Z,31.13
2019-02-28T02:31:30.253Z,29.30
2019-02-28T02:33:58.510Z,34.53
2019-02-28T02:36:26.777Z,30.07
2019-02-28T02:38:55.030Z,27.40
2019-02-28T02:41:23.316Z,29.37
2019-02-28T02:43:55.031Z,31.53
2019-02-28T02:46:21.576Z,37.20
2019-02-28T02:48:49.838Z,30.40
2019-02-28T02:51:18.096Z,29.70
2019-02-28T02:53:46.356Z,34.07
2019-02-28T02:56:14.616Z,34.30
2019-02-28T02:58:42.884Z,34.60
2019-02-28T03:01:11.145Z,31.23
2019-02-28T03:03:42.704Z,30.50
2019-02-28T03:06:13.838Z,33.00
2019-02-28T03:08:39.386Z,31.50
2019-02-28T03:11:07.673Z,32.37
2019-02-28T03:13:42.176Z,31.07
2019-02-28T03:16:05.911Z,29.63
2019-02-28T03:18:34.180Z,30.43
2019-02-28T03:21:02.442Z,23.60
2019-02-28T03:23:38.139Z,31.40
2019-02-28T03:26:05.754Z,31.47
2019-02-28T03:28:31.954Z,26.40
2019-02-28T03:31:11.726Z,28.90
2019-02-28T03:33:30.665Z,25.30
2019-02-28T03:35:58.941Z,28.47
2019-02-28T03:38:27.198Z,27.20
2019-02-28T03:40:55.467Z,27.83
2019-02-28T03:43:23.732Z,27.03
2019-02-28T03:45:51.989Z,27.60
2019-02-28T03:48:20.260Z,30.37
2019-02-28T03:50:48.517Z,35.67
2019-02-28T03:53:19.996Z,37.23
2019-02-28T03:55:46.793Z,41.37
2019-02-28T03:58:15.052Z,32.23
2019-02-28T04:00:43.338Z,22.30
2019-02-28T04:03:11.590Z,27.37
2019-02-28T04:05:39.848Z,24.87
2019-02-28T04:08:08.142Z,28.53
2019-02-28T04:10:36.395Z,23.20
2019-02-28T04:13:04.649Z,30.20
2019-02-28T04:15:32.917Z,25.87
2019-02-28T04:18:07.087Z,26.23
2019-02-28T04:20:35.922Z,30.40
2019-02-28T04:23:01.371Z,27.40
2019-02-28T04:25:29.609Z,26.23
2019-02-28T04:27:57.884Z,28.57
2019-02-28T04:30:26.203Z,29.97
2019-02-28T04:32:54.461Z,32.40
2019-02-28T04:35:25.287Z,28.57
2019-02-28T04:37:52.748Z,30.90
2019-02-28T04:40:21.074Z,33.73
2019-02-28T04:42:49.337Z,30.73
2019-02-28T04:45:17.588Z,30.90
2019-02-28T04:47:45.859Z,30.67
2019-02-28T04:50:14.180Z,31.70
2019-02-28T04:52:47.952Z,37.80
2019-02-28T04:55:37.214Z,38.53
2019-02-28T04:58:04.499Z,43.83
2019-02-28T05:00:32.780Z,39.20
2019-02-28T05:03:01.071Z,47.27
2019-02-28T05:05:29.331Z,35.90
2019-02-28T05:07:57.834Z,37.27
2019-02-28T05:10:26.217Z,42.37
2019-02-28T05:12:54.473Z,48.10
2019-02-28T05:15:22.743Z,48.47
2019-02-28T05:17:53.139Z,50.77
2019-02-28T05:20:21.223Z,42.63
2019-02-28T05:22:49.749Z,47.97
2019-02-28T05:25:18.832Z,37.67
2019-02-28T05:27:48.907Z,30.37
2019-02-28T05:30:19.621Z,34.53
2019-02-28T05:32:47.938Z,36.73
2019-02-28T05:35:16.210Z,36.07
2019-02-28T05:37:48.238Z,27.47
2019-02-28T05:40:17.642Z,35.17
2019-02-28T05:42:46.145Z,29.00
2019-02-28T05:45:15.763Z,35.37
2019-02-28T05:47:46.849Z,34.13
2019-02-28T05:50:17.282Z,36.63
2019-02-28T05:52:45.838Z,45.90
2019-02-28T05:55:14.130Z,39.30
2019-02-28T05:57:48.114Z,35.67
2019-02-28T06:00:20.864Z,36.27
2019-02-28T06:02:49.160Z,37.53
2019-02-28T06:05:20.112Z,35.73
2019-02-28T06:07:48.370Z,43.27
2019-02-28T06:10:16.642Z,39.93
2019-02-28T06:12:45.168Z,43.63
2019-02-28T06:15:14.833Z,39.83
2019-02-28T06:17:43.113Z,43.17
2019-02-28T06:20:16.476Z,40.87
2019-02-28T06:22:42.464Z,48.07
2019-02-28T06:25:11.606Z,66.53
2019-02-28T06:27:41.811Z,65.57
2019-02-28T06:30:14.433Z,75.17
2019-02-28T06:32:42.705Z,56.97
2019-02-28T06:35:16.126Z,53.30
2019-02-28T06:37:41.025Z,46.80
2019-02-28T06:40:15.689Z,47.23
2019-02-28T06:42:46.637Z,43.97
2019-02-28T06:45:18.037Z,49.70
2019-02-28T06:47:49.622Z,53.70
2019-02-28T06:50:16.571Z,41.17
2019-02-28T06:52:44.809Z,46.50
2019-02-28T06:55:14.892Z,46.87
2019-02-28T06:57:43.249Z,52.27
2019-02-28T07:00:16.099Z,55.67
2019-02-28T07:02:44.435Z,44.83
2019-02-28T07:05:12.693Z,41.67
2019-02-28T07:07:40.975Z,39.33
2019-02-28T07:10:12.737Z,40.70
2019-02-28T07:12:41.570Z,45.73
2019-02-28T07:15:10.407Z,39.97
2019-02-28T07:17:38.715Z,38.87
2019-02-28T07:20:13.191Z,40.60
2019-02-28T07:22:41.446Z,35.00
2019-02-28T07:25:12.770Z,34.80
2019-02-28T07:27:40.696Z,40.90
2019-02-28T07:30:18.774Z,41.40
2019-02-28T07:32:46.856Z,37.70
2019-02-28T07:35:15.178Z,39.80
2019-02-28T07:37:43.467Z,34.17
2019-02-28T07:40:16.258Z,41.47
2019-02-28T07:42:43.869Z,42.33
2019-02-28T07:45:13.368Z,38.80
2019-02-28T07:47:41.758Z,40.53
2019-02-28T07:50:13.275Z,40.50
2019-02-28T07:52:41.546Z,47.10
2019-02-28T07:55:14.125Z,44.10
2019-02-28T07:57:42.370Z,41.03
2019-02-28T08:00:22.531Z,37.53
2019-02-28T08:02:50.818Z,40.70
2019-02-28T08:05:19.114Z,36.60
2019-02-28T08:07:51.993Z,55.37
2019-02-28T08:10:28.368Z,57.10
2019-02-28T08:12:56.682Z,51.33
2019-02-28T08:15:26.090Z,40.93
2019-02-28T08:17:54.476Z,41.57
2019-02-28T08:20:22.743Z,49.17
2019-02-28T08:22:51.070Z,38.70
2019-02-28T08:25:20.582Z,39.27
2019-02-28T08:27:48.940Z,39.20
2019-02-28T08:30:20.671Z,38.87
2019-02-28T08:32:49.151Z,37.47
2019-02-28T08:35:17.488Z,38.03
2019-02-28T08:37:45.781Z,32.40
2019-02-28T08:40:19.911Z,31.20
2019-02-28T08:42:49.905Z,28.43
2019-02-28T08:45:18.273Z,31.33
2019-02-28T08:47:46.581Z,31.10
2019-02-28T08:50:23.997Z,33.50
2019-02-28T08:52:53.830Z,32.90
2019-02-28T08:55:28.752Z,29.63
2019-02-28T08:57:55.887Z,34.87
2019-02-28T09:00:23.223Z,30.83
2019-02-28T09:02:52.899Z,29.93
2019-02-28T09:05:25.660Z,27.90
2019-02-28T09:07:52.030Z,23.70
2019-02-28T09:10:21.461Z,24.93
2019-02-28T09:12:49.733Z,26.50
2019-02-28T09:15:20.974Z,29.70
2019-02-28T09:17:49.811Z,30.30
2019-02-28T09:20:18.105Z,28.07
2019-02-28T09:22:46.452Z,25.30
2019-02-28T09:25:22.080Z,25.97
2019-02-28T09:27:49.988Z,26.80
2019-02-28T09:30:29.768Z,22.53
2019-02-28T09:32:57.784Z,24.13
2019-02-28T09:35:26.085Z,26.60
2019-02-28T09:37:54.351Z,24.03
2019-02-28T09:40:25.921Z,21.73
2019-02-28T09:42:52.639Z,25.77
2019-02-28T09:45:22.435Z,22.37
2019-02-28T09:47:50.705Z,26.33
2019-02-28T09:50:22.578Z,25.33
2019-02-28T09:52:51.142Z,22.47
2019-02-28T09:55:19.415Z,20.90
2019-02-28T09:57:53.713Z,24.63
2019-02-28T10:00:28.590Z,24.27
2019-02-28T10:02:56.852Z,24.73
2019-02-28T10:05:25.147Z,22.37
2019-02-28T10:07:53.400Z,27.50
2019-02-28T10:10:26.596Z,24.97
2019-02-28T10:12:56.871Z,22.07
2019-02-28T10:15:26.016Z,23.73
2019-02-28T10:17:54.291Z,23.83
2019-02-28T10:20:39.602Z,22.73
2019-02-28T10:23:07.866Z,26.80
2019-02-28T10:25:41.038Z,26.97
2019-02-28T10:28:07.958Z,27.57
2019-02-28T10:30:37.971Z,27.37
2019-02-28T10:33:06.303Z,25.17
2019-02-28T10:35:36.903Z,29.80
2019-02-28T10:38:04.626Z,33.70
2019-02-28T10:40:32.886Z,29.43
2019-02-28T10:43:01.193Z,33.70
2019-02-28T10:45:29.458Z,29.17
2019-02-28T10:48:02.971Z,33.17
2019-02-28T10:50:33.219Z,33.97
2019-02-28T10:53:04.044Z,32.77
2019-02-28T10:55:30.954Z,34.93
2019-02-28T10:57:59.220Z,32.70
2019-02-28T11:00:32.667Z,38.23
2019-02-28T11:03:01.933Z,35.60
2019-02-28T11:05:35.101Z,36.40
2019-02-28T11:08:03.867Z,33.00
2019-02-28T11:10:37.972Z,37.97
2019-02-28T11:13:08.674Z,37.43
2019-02-28T11:15:36.937Z,35.10
2019-02-28T11:18:09.752Z,37.93
2019-02-28T11:20:36.754Z,36.73
2019-02-28T11:23:05.107Z,37.30
2019-02-28T11:25:35.506Z,36.30
2019-02-28T11:28:03.342Z,37.30
2019-02-28T11:30:32.558Z,33.37
2019-02-28T11:33:04.505Z,30.77
2019-02-28T11:35:31.316Z,32.80
2019-02-28T11:37:59.589Z,35.47
2019-02-28T11:40:29.284Z,32.13
2019-02-28T11:42:59.362Z,31.47
2019-02-28T11:45:30.684Z,27.00
2019-02-28T11:48:00.804Z,36.10
2019-02-28T11:50:29.073Z,26.87
2019-02-28T11:53:03.107Z,29.37
2019-02-28T11:55:27.328Z,29.97
2019-02-28T11:58:01.453Z,28.63
2019-02-28T12:00:36.518Z,33.23
2019-02-28T12:03:05.705Z,35.23
2019-02-28T12:05:34.162Z,23.27
2019-02-28T12:08:02.422Z,22.33
2019-02-28T12:10:30.695Z,28.23
2019-02-28T12:12:58.962Z,23.30
2019-02-28T12:15:31.910Z,26.47
2019-02-28T12:18:03.635Z,28.50
2019-02-28T12:20:30.184Z,24.03
2019-02-28T12:22:58.436Z,26.53
2019-02-28T12:25:26.705Z,25.43
2019-02-28T12:27:55.323Z,28.57
2019-02-28T12:30:26.406Z,26.43
2019-02-28T12:32:54.683Z,26.37
2019-02-28T12:35:22.936Z,23.07
2019-02-28T12:37:53.968Z,19.60
2019-02-28T12:40:26.782Z,24.70
2019-02-28T12:42:55.094Z,25.50
2019-02-28T12:45:35.243Z,18.67
2019-02-28T12:48:03.499Z,24.97
2019-02-28T12:50:31.952Z,21.43
2019-02-28T12:53:01.848Z,16.07
2019-02-28T12:55:30.668Z,15.67
2019-02-28T12:57:59.192Z,18.40
2019-02-28T13:00:30.702Z,16.20
2019-02-28T13:03:02.785Z,23.23
2019-02-28T13:05:34.692Z,20.03
2019-02-28T13:08:05.826Z,16.90
2019-02-28T13:10:33.104Z,13.77
2019-02-28T13:13:06.306Z,16.57
2019-02-28T13:15:31.514Z,17.37
2019-02-28T13:17:59.911Z,17.53
2019-02-28T13:20:33.512Z,20.00
2019-02-28T13:23:01.117Z,19.70
2019-02-28T13:25:29.766Z,27.23
2019-02-28T13:27:58.170Z,22.43
2019-02-28T13:30:27.429Z,18.83
2019-02-28T13:32:56.377Z,22.03
2019-02-28T13:35:30.829Z,19.00
2019-02-28T13:37:59.221Z,23.30
2019-02-28T13:40:27.695Z,18.90
2019-02-28T13:42:56.253Z,20.07
2019-02-28T13:45:25.040Z,23.87
2019-02-28T13:47:53.623Z,25.53
2019-02-28T13:50:29.296Z,27.77
2019-02-28T13:53:02.500Z,23.83
2019-02-28T13:55:32.443Z,31.87
2019-02-28T13:58:05.530Z,25.83
2019-02-28T14:00:43.997Z,20.23
2019-02-28T14:03:12.828Z,20.80
2019-02-28T14:05:42.298Z,28.13
2019-02-28T14:08:16.537Z,21.30
2019-02-28T14:11:00.244Z,26.83
2019-02-28T14:13:42.857Z,23.00
2019-02-28T14:16:20.316Z,20.20
2019-02-28T14:18:56.524Z,25.13
2019-02-28T14:21:37.055Z,20.40
2019-02-28T14:24:07.989Z,19.00
2019-02-28T14:26:43.007Z,20.33
2019-02-28T14:29:11.742Z,21.30
2019-02-28T14:31:40.173Z,18.67
2019-02-28T14:34:08.530Z,18.50
2019-02-28T14:36:36.822Z,23.57
2019-02-28T14:39:08.432Z,26.93
2019-02-28T14:41:36.614Z,21.80
2019-02-28T14:44:04.962Z,24.67
2019-02-28T14:46:34.709Z,18.17
2019-02-28T14:49:03.187Z,22.83
2019-02-28T14:51:31.442Z,21.30
2019-02-28T14:53:59.729Z,19.33
2019-02-28T14:56:28.008Z,23.17
2019-02-28T14:58:57.521Z,19.13
2019-02-28T15:01:25.858Z,20.63
2019-02-28T15:03:54.225Z,17.57
2019-02-28T15:06:22.525Z,21.97
2019-02-28T15:08:51.929Z,21.37
2019-02-28T15:11:20.359Z,23.63
2019-02-28T15:13:48.628Z,20.57
2019-02-28T15:16:16.932Z,20.67
2019-02-28T15:18:47.468Z,19.90
2019-02-28T15:21:16.144Z,20.00
2019-02-28T15:23:44.445Z,18.53
2019-02-28T15:26:12.710Z,20.50
2019-02-28T15:28:40.992Z,21.67
2019-02-28T15:31:09.461Z,16.80
2019-02-28T15:33:37.656Z,23.43
2019-02-28T15:36:05.930Z,20.70
2019-02-28T15:38:34.295Z,19.40
2019-02-28T15:41:02.651Z,16.57
2019-02-28T15:43:30.974Z,20.57
2019-02-28T15:45:59.232Z,17.53
2019-02-28T15:48:27.565Z,19.30
2019-02-28T15:50:55.852Z,19.10
2019-02-28T15:53:24.172Z,18.80
2019-02-28T15:55:52.465Z,20.77
2019-02-28T15:58:20.726Z,16.57
2019-02-28T16:00:48.990Z,21.87
2019-02-28T16:03:17.500Z,22.57
2019-02-28T16:05:45.779Z,25.07
2019-02-28T16:08:14.047Z,20.67
2019-02-28T16:10:52.636Z,27.10
2019-02-28T16:13:12.302Z,21.40
2019-02-28T16:15:43.285Z,25.13
2019-02-28T16:18:11.959Z,18.33
2019-02-28T16:20:40.533Z,23.87
2019-02-28T16:23:08.825Z,21.47
2019-02-28T16:25:38.017Z,19.63
2019-02-28T16:28:08.786Z,24.37
2019-02-28T16:30:37.904Z,20.83
2019-02-28T16:33:06.160Z,21.67
2019-02-28T16:35:34.436Z,24.83
2019-02-28T16:38:02.698Z,23.40
2019-02-28T16:40:31.705Z,23.87
2019-02-28T16:42:59.963Z,21.60
2019-02-28T16:45:33.386Z,20.63
2019-02-28T16:48:03.357Z,22.23
2019-02-28T16:50:31.617Z,23.13
2019-02-28T16:52:59.916Z,25.13
2019-02-28T16:55:30.971Z,23.47
2019-02-28T16:57:58.208Z,21.10
2019-02-28T17:00:26.661Z,22.87
2019-02-28T17:02:54.916Z,24.43
2019-02-28T17:05:26.492Z,25.03
2019-02-28T17:07:53.162Z,31.13
2019-02-28T17:10:23.102Z,23.33
2019-02-28T17:13:04.737Z,27.10
2019-02-28T17:15:46.599Z,23.63
2019-02-28T17:18:21.480Z,28.97
2019-02-28T17:20:49.078Z,37.10
2019-02-28T17:23:18.642Z,32.13
2019-02-28T17:25:47.147Z,28.30
2019-02-28T17:28:17.099Z,28.13
2019-02-28T17:30:56.004Z,22.67
2019-02-28T17:33:24.344Z,26.70
2019-02-28T17:35:52.670Z,26.60
2019-02-28T17:38:20.931Z,27.27
2019-02-28T17:40:49.263Z,24.27
2019-02-28T17:43:17.555Z,29.83
2019-02-28T17:45:47.284Z,23.17
2019-02-28T17:48:52.707Z,30.73
2019-02-28T17:51:36.496Z,39.83
2019-02-28T17:54:13.805Z,29.10
2019-02-28T17:57:03.238Z,29.80
2019-02-28T17:59:42.021Z,24.73
2019-02-28T18:02:39.301Z,26.73
2019-02-28T18:05:30.327Z,23.47
2019-02-28T18:08:21.575Z,28.47
2019-02-28T18:11:12.563Z,26.10
2019-02-28T18:14:05.317Z,28.73
2019-02-28T18:16:48.734Z,27.53
2019-02-28T18:19:32.779Z,23.73
2019-02-28T18:22:15.767Z,25.83
2019-02-28T18:25:03.974Z,26.00
2019-02-28T18:27:50.748Z,23.97
2019-02-28T18:30:47.471Z,31.43
2019-02-28T18:33:15.728Z,27.83
2019-02-28T18:35:43.987Z,25.13
2019-02-28T18:38:12.249Z,24.30
2019-02-28T18:40:40.516Z,25.43
2019-02-28T18:43:08.776Z,24.83
2019-02-28T18:45:37.045Z,30.90
2019-02-28T18:48:05.320Z,27.33
2019-02-28T18:50:33.588Z,26.47
2019-02-28T18:53:06.969Z,32.53
2019-02-28T18:55:35.319Z,25.50
2019-02-28T18:58:03.559Z,25.37
2019-02-28T19:00:31.820Z,21.60
2019-02-28T19:03:00.085Z,17.50
2019-02-28T19:05:28.349Z,19.80
2019-02-28T19:07:56.610Z,26.97
2019-02-28T19:10:24.902Z,20.10
2019-02-28T19:12:53.159Z,20.37
2019-02-28T19:15:21.414Z,21.73
2019-02-28T19:17:49.678Z,26.13
2019-02-28T19:20:17.940Z,21.67
2019-02-28T19:22:46.219Z,18.50
2019-02-28T19:25:14.481Z,20.70
2019-02-28T19:27:42.781Z,18.77
2019-02-28T19:30:15.246Z,19.90
2019-02-28T19:32:43.551Z,20.57
2019-02-28T19:35:11.800Z,19.30
2019-02-28T19:37:40.076Z,21.70
2019-02-28T19:40:13.180Z,23.70
2019-02-28T19:42:41.456Z,21.47
2019-02-28T19:45:13.060Z,20.77
2019-02-28T19:47:41.427Z,19.13
2019-02-28T19:50:10.846Z,22.17
2019-02-28T19:52:39.171Z,20.40
2019-02-28T19:55:14.595Z,18.00
2019-02-28T19:57:42.943Z,23.27
2019-02-28T20:00:16.651Z,22.57
2019-02-28T20:02:44.954Z,24.67
2019-02-28T20:05:13.494Z,23.50
2019-02-28T20:07:41.789Z,20.57
2019-02-28T20:10:15.041Z,25.33
2019-02-28T20:12:43.404Z,20.57
2019-02-28T20:15:15.928Z,22.27
2019-02-28T20:17:44.258Z,29.77
2019-02-28T20:20:21.750Z,28.43
2019-02-28T20:22:50.034Z,23.53
2019-02-28T20:25:18.339Z,29.47
2019-02-28T20:27:46.646Z,23.63
2019-02-28T20:30:18.185Z,21.13
2019-02-28T20:32:46.469Z,22.10
2019-02-28T20:35:14.847Z,21.10
2019-02-28T20:37:43.202Z,23.80
2019-02-28T20:40:20.580Z,23.77
2019-02-28T20:42:48.884Z,28.00
2019-02-28T20:45:17.137Z,25.07
2019-02-28T20:47:45.445Z,26.43
2019-02-28T20:50:17.063Z,24.37
2019-02-28T20:52:45.394Z,27.03
2019-02-28T20:55:13.702Z,26.40
2019-02-28T20:57:41.997Z,28.00
2019-02-28T21:00:19.525Z,26.90
2019-02-28T21:02:55.397Z,31.10
2019-02-28T21:05:23.775Z,23.90
2019-02-28T21:07:52.063Z,21.93
2019-02-28T21:10:20.443Z,22.37
2019-02-28T21:12:48.724Z,21.80
2019-02-28T21:15:17.035Z,23.03
2019-02-28T21:17:45.342Z,20.20
2019-02-28T21:20:15.734Z,21.33
2019-02-28T21:22:44.037Z,22.13
2019-02-28T21:25:18.986Z,21.47
2019-02-28T21:27:47.302Z,21.83
2019-02-28T21:30:26.282Z,18.40
2019-02-28T21:32:54.604Z,20.73
2019-02-28T21:35:23.115Z,21.70
2019-02-28T21:37:51.471Z,20.27
2019-02-28T21:40:20.880Z,19.40
2019-02-28T21:42:49.270Z,17.53
2019-02-28T21:45:22.173Z,23.03
2019-02-28T21:47:50.460Z,20.40
2019-02-28T21:50:18.933Z,22.23
2019-02-28T21:52:47.211Z,19.27
2019-02-28T21:55:16.422Z,19.23
2019-02-28T21:57:44.806Z,20.03
2019-02-28T22:00:21.923Z,21.23
2019-02-28T22:02:50.260Z,21.07
2019-02-28T22:05:18.544Z,22.07
2019-02-28T22:07:46.877Z,20.67
2019-02-28T22:10:15.892Z,21.33
2019-02-28T22:12:44.179Z,21.90
2019-02-28T22:15:17.946Z,19.77
2019-02-28T22:17:46.229Z,19.97
2019-02-28T22:20:14.978Z,20.37
2019-02-28T22:22:43.270Z,16.33
2019-02-28T22:25:13.128Z,17.33
2019-02-28T22:27:41.413Z,16.67
2019-02-28T22:30:26.576Z,17.57
2019-02-28T22:32:56.513Z,18.03
2019-02-28T22:35:26.435Z,15.50
2019-02-28T22:37:54.745Z,19.70
2019-02-28T22:40:23.036Z,17.53
2019-02-28T22:42:51.347Z,13.13
2019-02-28T22:45:19.625Z,18.20
2019-02-28T22:47:47.898Z,16.13
2019-02-28T22:50:16.193Z,19.23
2019-02-28T22:52:44.556Z,16.67
2019-02-28T22:55:12.850Z,21.27
2019-02-28T22:57:41.172Z,16.97
2019-02-28T23:00:12.773Z,19.53
2019-02-28T23:02:41.141Z,18.57
2019-02-28T23:05:09.514Z,17.77
2019-02-28T23:07:37.812Z,18.17
2019-02-28T23:10:07.613Z,17.20
2019-02-28T23:12:35.910Z,15.90
2019-02-28T23:15:05.806Z,12.67
2019-02-28T23:17:34.101Z,17.43
2019-02-28T23:20:02.462Z,17.80
2019-02-28T23:22:30.736Z,19.03
2019-02-28T23:24:59.066Z,21.33
2019-02-28T23:27:27.395Z,15.10
2019-02-28T23:29:59.084Z,19.43
2019-02-28T23:32:39.326Z,13.27
2019-02-28T23:35:11.006Z,19.27
2019-02-28T23:37:39.342Z,23.37
2019-02-28T23:40:07.650Z,16.40
2019-02-28T23:42:35.953Z,18.23
2019-02-28T23:45:05.380Z,18.10
2019-02-28T23:47:33.653Z,19.23
2019-02-28T23:50:01.970Z,17.73
2019-02-28T23:52:30.283Z,15.63
2019-02-28T23:54:58.589Z,19.77
2019-02-28T23:57:26.870Z,20.07
2019-02-28T23:59:55.125Z,15.73
